Time;durP1;ratioP1;P1;durP2;ratioP2;P2;SDS_P1;SDS_P2;PMS_P1;PMS_P2;Temp;Humidity;BMP_temperature;BMP_pressure;BME280_temperature;BME280_humidity;BME280_pressure;Samples;Min_cycle;Max_cycle;Signal;HPM_P1;HPM_P2
2023/01/21 00:00:23;;;;;;;9.70;6.32;;;;;;;;;;4978444;28;20093;-78
2023/01/21 00:03:09;;;;;;;8.77;6.22;;;;;;;;;;4979946;28;20046;-79
2023/01/21 00:05:57;;;;;;;8.07;5.57;;;;;;;;;;4978480;28;20110;-78
2023/01/21 00:08:42;;;;;;;9.05;5.82;;;;;;;;;;4980214;28;20023;-79
2023/01/21 00:11:28;;;;;;;8.70;6.03;;;;;;;;;;4979899;28;20038;-78
2023/01/21 00:14:13;;;;;;;8.50;6.13;;;;;;;;;;4987964;28;20030;-78
2023/01/21 00:16:59;;;;;;;9.18;6.20;;;;;;;;;;4982468;28;20019;-78
2023/01/21 00:19:45;;;;;;;9.43;6.50;;;;;;;;;;4986828;28;20022;-76
2023/01/21 00:22:31;;;;;;;9.07;6.38;;;;;;;;;;4994979;28;20022;-77
2023/01/21 00:25:16;;;;;;;12.27;7.25;;;;;;;;;;4994707;28;20003;-78
2023/01/21 00:28:02;;;;;;;11.10;7.30;;;;;;;;;;4981359;28;20093;-77
2023/01/21 00:30:47;;;;;;;10.10;6.90;;;;;;;;;;4980603;28;20023;-78
2023/01/21 00:33:33;;;;;;;8.90;6.47;;;;;;;;;;4978631;28;20462;-78
2023/01/21 00:36:21;;;;;;;8.95;6.07;;;;;;;;;;4992180;28;20063;-78
2023/01/21 00:39:07;;;;;;;10.20;6.88;;;;;;;;;;4985161;28;20109;-78
2023/01/21 00:41:52;;;;;;;9.00;6.32;;;;;;;;;;4985155;28;20034;-78
2023/01/21 00:44:38;;;;;;;9.23;6.22;;;;;;;;;;4998987;28;20470;-78
2023/01/21 00:47:23;;;;;;;10.35;6.40;;;;;;;;;;4984666;28;20117;-78
2023/01/21 00:50:09;;;;;;;9.35;6.40;;;;;;;;;;4997350;28;20505;-79
2023/01/21 00:52:55;;;;;;;9.95;6.35;;;;;;;;;;4984478;28;20085;-79
2023/01/21 00:55:40;;;;;;;9.32;6.70;;;;;;;;;;4999096;28;20063;-78
2023/01/21 00:58:26;;;;;;;9.90;6.60;;;;;;;;;;4999415;28;20033;-78
2023/01/21 01:01:14;;;;;;;9.50;6.40;;;;;;;;;;4984437;28;20041;-77
2023/01/21 01:03:59;;;;;;;8.65;6.20;;;;;;;;;;4984688;28;20077;-78
2023/01/21 01:06:46;;;;;;;8.98;6.15;;;;;;;;;;4997605;28;20475;-77
2023/01/21 01:09:31;;;;;;;9.18;6.30;;;;;;;;;;4999011;28;20143;-78
2023/01/21 01:12:17;;;;;;;9.77;6.78;;;;;;;;;;4998228;28;20024;-78
2023/01/21 01:15:03;;;;;;;10.27;6.55;;;;;;;;;;4984234;28;20022;-78
2023/01/21 01:17:48;;;;;;;10.60;6.60;;;;;;;;;;4998966;28;20034;-78
2023/01/21 01:20:34;;;;;;;9.82;6.60;;;;;;;;;;4997485;28;20019;-78
2023/01/21 01:23:20;;;;;;;13.77;7.03;;;;;;;;;;4999050;28;20026;-79
2023/01/21 01:26:06;;;;;;;9.13;6.45;;;;;;;;;;4997612;28;20092;-77
2023/01/21 01:28:52;;;;;;;10.65;6.82;;;;;;;;;;4984854;28;20339;-78
2023/01/21 01:31:38;;;;;;;10.65;6.60;;;;;;;;;;4998107;28;20022;-79
2023/01/21 01:34:23;;;;;;;10.15;6.55;;;;;;;;;;4998104;28;20026;-79
2023/01/21 01:37:09;;;;;;;9.98;6.13;;;;;;;;;;4997848;28;20038;-79
2023/01/21 01:39:55;;;;;;;9.43;6.28;;;;;;;;;;4998232;28;20088;-79
2023/01/21 01:42:40;;;;;;;10.40;6.95;;;;;;;;;;4998292;28;20335;-77
2023/01/21 01:45:26;;;;;;;9.50;6.25;;;;;;;;;;4998340;28;20096;-78
2023/01/21 01:48:14;;;;;;;10.00;6.63;;;;;;;;;;4996243;28;20414;-78
2023/01/21 01:51:02;;;;;;;10.27;6.32;;;;;;;;;;4997811;28;20097;-78
2023/01/21 01:53:48;;;;;;;9.48;6.25;;;;;;;;;;4996817;28;20081;-78
2023/01/21 01:56:34;;;;;;;8.52;5.95;;;;;;;;;;4983943;28;20037;-78
2023/01/21 01:59:20;;;;;;;9.73;6.50;;;;;;;;;;4996545;28;20045;-78
2023/01/21 02:02:07;;;;;;;8.52;6.25;;;;;;;;;;4996345;28;20064;-78
2023/01/21 02:04:55;;;;;;;10.02;6.53;;;;;;;;;;4996187;28;20030;-78
2023/01/21 02:07:43;;;;;;;10.48;5.97;;;;;;;;;;4983815;28;20041;-78
2023/01/21 02:10:30;;;;;;;10.38;6.90;;;;;;;;;;4982613;28;20022;-78
2023/01/21 02:13:16;;;;;;;10.55;6.90;;;;;;;;;;4997421;28;20032;-77
2023/01/21 02:16:07;;;;;;;11.35;6.70;;;;;;;;;;4996931;28;20419;-79
2023/01/21 02:19:11;;;;;;;8.77;6.03;;;;;;;;;;4998032;28;20097;-78
2023/01/21 02:22:01;;;;;;;9.95;6.45;;;;;;;;;;4982239;28;20022;-78
2023/01/21 02:24:53;;;;;;;8.90;5.90;;;;;;;;;;4997330;28;20026;-78
2023/01/21 02:27:45;;;;;;;8.13;5.53;;;;;;;;;;4982394;28;20439;-78
2023/01/21 02:30:49;;;;;;;9.57;6.20;;;;;;;;;;4983508;28;20095;-78
2023/01/21 02:33:54;;;;;;;10.07;6.43;;;;;;;;;;4983365;28;20022;-77
2023/01/21 02:36:53;;;;;;;9.52;6.43;;;;;;;;;;4994771;28;20046;-77
2023/01/21 02:39:59;;;;;;;10.40;6.35;;;;;;;;;;4996680;28;20092;-78
2023/01/21 02:42:46;;;;;;;8.80;5.97;;;;;;;;;;4996022;28;20458;-78
2023/01/21 02:45:41;;;;;;;8.55;6.03;;;;;;;;;;4996197;28;20109;-77
2023/01/21 02:48:38;;;;;;;8.82;5.97;;;;;;;;;;4996973;28;20023;-78
2023/01/21 02:51:24;;;;;;;8.48;5.80;;;;;;;;;;4995282;28;20033;-78
2023/01/21 02:54:35;;;;;;;11.77;6.80;;;;;;;;;;4995527;28;20026;-78
2023/01/21 02:57:39;;;;;;;7.85;5.70;;;;;;;;;;4996525;28;20134;-78
2023/01/21 03:00:26;;;;;;;8.82;5.85;;;;;;;;;;4995618;28;20011;-78
2023/01/21 03:03:18;;;;;;;9.98;6.43;;;;;;;;;;4983163;28;20022;-78
2023/01/21 03:06:13;;;;;;;9.10;6.13;;;;;;;;;;4982880;28;20081;-77
2023/01/21 03:09:19;;;;;;;10.48;6.72;;;;;;;;;;4997359;28;20058;-78
2023/01/21 03:12:04;;;;;;;9.45;6.30;;;;;;;;;;4996330;28;20049;-79
2023/01/21 03:18:07;;;;;;;9.25;6.40;;;;;;;;;;4996126;28;20022;-78
2023/01/21 03:21:05;;;;;;;12.98;7.00;;;;;;;;;;4980943;28;20320;-78
2023/01/21 03:23:51;;;;;;;9.50;6.07;;;;;;;;;;4996417;28;20097;-78
2023/01/21 03:26:39;;;;;;;8.18;5.95;;;;;;;;;;4995660;28;20014;-77
2023/01/21 03:29:26;;;;;;;8.65;6.30;;;;;;;;;;4997072;28;20033;-78
2023/01/21 03:32:14;;;;;;;9.07;6.40;;;;;;;;;;4982595;28;20321;-78
2023/01/21 03:35:00;;;;;;;8.57;6.30;;;;;;;;;;4981765;28;20026;-79
2023/01/21 03:37:51;;;;;;;10.48;6.63;;;;;;;;;;4996826;28;20026;-78
2023/01/21 03:40:47;;;;;;;9.43;6.72;;;;;;;;;;4982317;28;20424;-78
2023/01/21 03:43:32;;;;;;;10.85;7.00;;;;;;;;;;4982497;28;20030;-78
2023/01/21 03:46:30;;;;;;;8.95;6.53;;;;;;;;;;4995567;28;20104;-78
2023/01/21 03:49:19;;;;;;;9.50;6.78;;;;;;;;;;4980628;28;20042;-78
2023/01/21 03:52:05;;;;;;;15.35;8.30;;;;;;;;;;4981167;28;20019;-78
2023/01/21 03:54:51;;;;;;;13.68;8.23;;;;;;;;;;4981620;28;20022;-78
2023/01/21 03:57:36;;;;;;;11.48;8.05;;;;;;;;;;4981757;28;20078;-78
2023/01/21 04:00:22;;;;;;;12.52;8.20;;;;;;;;;;4994988;28;20447;-78
2023/01/21 04:03:08;;;;;;;14.30;8.60;;;;;;;;;;4995284;28;20030;-77
2023/01/21 04:05:53;;;;;;;14.55;8.82;;;;;;;;;;4994869;28;20027;-78
2023/01/21 04:08:39;;;;;;;15.93;9.00;;;;;;;;;;4996390;28;20030;-78
2023/01/21 04:11:24;;;;;;;14.18;9.05;;;;;;;;;;4996409;28;20018;-77
2023/01/21 04:14:10;;;;;;;13.93;7.95;;;;;;;;;;5001263;28;20076;-78
2023/01/21 04:16:55;;;;;;;13.68;8.57;;;;;;;;;;4981444;28;20077;-78
2023/01/21 04:19:41;;;;;;;14.82;8.55;;;;;;;;;;4995691;28;20463;-78
2023/01/21 04:22:27;;;;;;;10.95;7.10;;;;;;;;;;4994791;28;20088;-78
2023/01/21 04:25:12;;;;;;;10.93;7.28;;;;;;;;;;4980829;28;20100;-79
2023/01/21 04:27:58;;;;;;;11.65;7.28;;;;;;;;;;4995717;28;20018;-79
2023/01/21 04:30:45;;;;;;;12.30;7.85;;;;;;;;;;4995318;28;20169;-79
2023/01/21 04:33:31;;;;;;;11.35;7.88;;;;;;;;;;4999720;28;20023;-79
2023/01/21 04:36:17;;;;;;;12.52;8.20;;;;;;;;;;4984370;28;20069;-79
2023/01/21 04:39:02;;;;;;;13.13;7.93;;;;;;;;;;4993906;28;20482;-79
2023/01/21 04:41:48;;;;;;;12.15;8.30;;;;;;;;;;4982296;28;20086;-78
2023/01/21 04:44:33;;;;;;;12.65;8.15;;;;;;;;;;4978287;28;20026;-78
2023/01/21 04:47:19;;;;;;;14.05;8.80;;;;;;;;;;4979969;28;20567;-78
2023/01/21 04:50:05;;;;;;;12.27;8.45;;;;;;;;;;4979354;28;20466;-79
2023/01/21 04:52:50;;;;;;;12.93;9.20;;;;;;;;;;4979071;28;20053;-79
2023/01/21 04:55:36;;;;;;;15.05;9.77;;;;;;;;;;4977489;28;20458;-79
2023/01/21 04:58:21;;;;;;;18.45;11.85;;;;;;;;;;4978140;28;20041;-78
2023/01/21 05:01:07;;;;;;;30.17;17.27;;;;;;;;;;4977525;28;20027;-79
2023/01/21 05:03:53;;;;;;;24.83;16.08;;;;;;;;;;4977655;28;20104;-78
2023/01/21 05:06:38;;;;;;;22.65;14.50;;;;;;;;;;4979234;28;20029;-79
2023/01/21 05:09:24;;;;;;;20.80;13.35;;;;;;;;;;4977806;28;20090;-79
2023/01/21 05:12:09;;;;;;;19.38;11.38;;;;;;;;;;4983077;28;20401;-79
2023/01/21 05:14:56;;;;;;;18.38;10.40;;;;;;;;;;4978099;28;20033;-79
2023/01/21 05:17:42;;;;;;;20.45;11.30;;;;;;;;;;4977683;28;20368;-78
2023/01/21 05:20:27;;;;;;;19.40;10.68;;;;;;;;;;4986041;28;20023;-79
2023/01/21 05:23:13;;;;;;;19.15;10.90;;;;;;;;;;4984180;28;20452;-80
2023/01/21 05:25:59;;;;;;;18.70;11.95;;;;;;;;;;4978267;28;20030;-79
2023/01/21 05:28:44;;;;;;;17.90;11.02;;;;;;;;;;4980650;28;20439;-80
2023/01/21 05:31:30;;;;;;;24.50;13.93;;;;;;;;;;4977038;28;20443;-79
2023/01/21 05:34:19;;;;;;;23.17;14.77;;;;;;;;;;4978222;28;20023;-79
2023/01/21 05:37:05;;;;;;;24.73;14.07;;;;;;;;;;4996054;28;20038;-79
2023/01/21 05:39:51;;;;;;;22.77;14.65;;;;;;;;;;4996618;28;20255;-78
2023/01/21 05:42:36;;;;;;;23.45;13.90;;;;;;;;;;4996570;28;20165;-79
2023/01/21 05:45:22;;;;;;;24.35;14.98;;;;;;;;;;4997986;28;20089;-78
2023/01/21 05:48:07;;;;;;;27.60;15.02;;;;;;;;;;4984171;28;20380;-78
2023/01/21 05:50:53;;;;;;;24.58;14.70;;;;;;;;;;4996946;28;20058;-77
2023/01/21 05:53:39;;;;;;;23.92;13.57;;;;;;;;;;4997275;28;20045;-78
2023/01/21 05:56:24;;;;;;;21.80;14.02;;;;;;;;;;4983028;28;20031;-77
2023/01/21 05:59:10;;;;;;;21.10;13.48;;;;;;;;;;4997705;28;20018;-78
2023/01/21 06:01:55;;;;;;;19.17;12.70;;;;;;;;;;4996990;28;20019;-77
2023/01/21 06:04:41;;;;;;;21.00;11.95;;;;;;;;;;4998001;28;20410;-78
2023/01/21 06:07:27;;;;;;;15.88;10.00;;;;;;;;;;4985183;28;20447;-79
2023/01/21 06:10:12;;;;;;;14.85;9.65;;;;;;;;;;5005800;28;20022;-77
2023/01/21 06:12:58;;;;;;;18.25;10.88;;;;;;;;;;5009416;28;20014;-78
2023/01/21 06:15:43;;;;;;;17.85;10.85;;;;;;;;;;5010613;28;20045;-78
2023/01/21 06:18:29;;;;;;;17.15;10.63;;;;;;;;;;5001475;28;20057;-79
2023/01/21 06:21:15;;;;;;;17.30;10.27;;;;;;;;;;4996310;28;20018;-79
2023/01/21 06:24:01;;;;;;;17.08;10.77;;;;;;;;;;4982786;28;20023;-79
2023/01/21 06:26:46;;;;;;;17.13;10.75;;;;;;;;;;4996391;28;20022;-78
2023/01/21 06:29:32;;;;;;;16.52;10.73;;;;;;;;;;4996816;28;20046;-78
2023/01/21 06:32:21;;;;;;;16.85;10.55;;;;;;;;;;4982703;28;20042;-78
2023/01/21 06:35:06;;;;;;;15.80;10.57;;;;;;;;;;4982044;28;20624;-79
2023/01/21 06:37:52;;;;;;;15.55;10.63;;;;;;;;;;4996777;28;20037;-77
2023/01/21 06:40:38;;;;;;;15.77;10.02;;;;;;;;;;4996578;28;20054;-79
2023/01/21 06:43:23;;;;;;;14.50;9.77;;;;;;;;;;4983100;28;20038;-80
2023/01/21 06:46:10;;;;;;;16.55;9.65;;;;;;;;;;4984425;28;20034;-79
2023/01/21 06:48:55;;;;;;;16.17;9.82;;;;;;;;;;4996222;28;20054;-78
2023/01/21 06:51:41;;;;;;;13.40;9.07;;;;;;;;;;4984082;28;20118;-79
2023/01/21 06:54:27;;;;;;;12.30;8.52;;;;;;;;;;4983532;28;20094;-80
2023/01/21 06:57:13;;;;;;;13.68;8.45;;;;;;;;;;4997089;28;20023;-79
2023/01/21 06:59:58;;;;;;;11.98;8.23;;;;;;;;;;4983205;28;20018;-79
2023/01/21 07:02:44;;;;;;;12.80;8.23;;;;;;;;;;4996298;28;20018;-78
2023/01/21 07:05:30;;;;;;;11.90;7.22;;;;;;;;;;4982610;28;20129;-79
2023/01/21 07:08:15;;;;;;;11.88;7.10;;;;;;;;;;4982236;28;20077;-79
2023/01/21 07:11:01;;;;;;;12.20;7.50;;;;;;;;;;4996157;28;20033;-79
2023/01/21 07:13:46;;;;;;;10.73;6.97;;;;;;;;;;4995834;28;20022;-79
2023/01/21 07:16:32;;;;;;;12.50;7.82;;;;;;;;;;4982342;28;20097;-80
2023/01/21 07:19:18;;;;;;;11.40;7.15;;;;;;;;;;4982237;28;20026;-79
2023/01/21 07:22:04;;;;;;;15.13;8.85;;;;;;;;;;4982311;28;20021;-78
2023/01/21 07:24:50;;;;;;;13.40;7.53;;;;;;;;;;4982390;28;20037;-80
2023/01/21 07:27:35;;;;;;;11.77;7.57;;;;;;;;;;4995893;28;20026;-78
2023/01/21 07:30:21;;;;;;;11.48;7.38;;;;;;;;;;4996140;28;20032;-79
2023/01/21 07:33:09;;;;;;;10.73;6.97;;;;;;;;;;4994895;28;20025;-79
2023/01/21 07:35:55;;;;;;;11.45;6.75;;;;;;;;;;4994546;28;20046;-78
2023/01/21 07:38:41;;;;;;;12.50;7.03;;;;;;;;;;4980225;28;20015;-79
2023/01/21 07:41:26;;;;;;;10.30;7.03;;;;;;;;;;4994923;28;20084;-79
2023/01/21 07:44:12;;;;;;;9.40;6.68;;;;;;;;;;4995115;28;20027;-79
2023/01/21 07:46:57;;;;;;;10.55;6.90;;;;;;;;;;4994711;28;20022;-79
2023/01/21 07:49:43;;;;;;;10.55;6.82;;;;;;;;;;4981636;28;20022;-80
2023/01/21 07:52:29;;;;;;;13.55;7.88;;;;;;;;;;4995574;28;20455;-79
2023/01/21 07:55:14;;;;;;;11.02;6.35;;;;;;;;;;4995537;28;20030;-78
2023/01/21 07:58:00;;;;;;;10.07;6.55;;;;;;;;;;4994642;28;20034;-79
2023/01/21 08:00:45;;;;;;;9.88;6.50;;;;;;;;;;4994693;28;20110;-79
2023/01/21 08:03:31;;;;;;;10.35;7.07;;;;;;;;;;4981188;28;20027;-80
2023/01/21 08:06:16;;;;;;;8.38;6.13;;;;;;;;;;4995517;28;20033;-80
2023/01/21 08:09:03;;;;;;;9.45;6.47;;;;;;;;;;4999784;28;20022;-78
2023/01/21 08:11:48;;;;;;;11.57;8.63;;;;;;;;;;4999145;28;20030;-78
2023/01/21 08:14:34;;;;;;;10.70;6.88;;;;;;;;;;5001447;28;20018;-78
2023/01/21 08:17:19;;;;;;;9.45;6.53;;;;;;;;;;5010063;28;20018;-78
2023/01/21 08:20:06;;;;;;;8.18;5.88;;;;;;;;;;4999573;28;20474;-79
2023/01/21 08:22:51;;;;;;;7.38;5.07;;;;;;;;;;4998732;28;20060;-78
2023/01/21 08:25:37;;;;;;;10.35;7.35;;;;;;;;;;4999481;28;20053;-80
2023/01/21 08:28:23;;;;;;;8.32;5.30;;;;;;;;;;4985472;28;20030;-79
2023/01/21 08:31:10;;;;;;;7.22;5.00;;;;;;;;;;4984973;28;20422;-78
2023/01/21 08:33:56;;;;;;;10.43;6.38;;;;;;;;;;4985426;28;20033;-79
2023/01/21 08:36:42;;;;;;;8.75;5.55;;;;;;;;;;4997845;28;20043;-79
2023/01/21 08:39:28;;;;;;;9.18;6.50;;;;;;;;;;4997778;28;20015;-79
2023/01/21 08:42:13;;;;;;;7.47;5.75;;;;;;;;;;4997739;28;20048;-79
2023/01/21 08:44:59;;;;;;;8.65;6.00;;;;;;;;;;4985092;28;20069;-79
2023/01/21 08:47:44;;;;;;;13.32;6.57;;;;;;;;;;4997732;28;20022;-80
2023/01/21 08:50:30;;;;;;;8.88;6.47;;;;;;;;;;4998830;28;20093;-78
2023/01/21 08:53:15;;;;;;;9.88;6.43;;;;;;;;;;4984188;28;20026;-78
2023/01/21 08:56:02;;;;;;;10.85;6.38;;;;;;;;;;4998022;28;20084;-78
2023/01/21 08:58:52;;;;;;;8.40;6.22;;;;;;;;;;4984894;28;20018;-78
2023/01/21 09:01:39;;;;;;;9.90;6.80;;;;;;;;;;5001785;28;20432;-78
2023/01/21 09:04:25;;;;;;;10.43;6.65;;;;;;;;;;4999113;28;20084;-78
2023/01/21 09:07:11;;;;;;;8.43;6.00;;;;;;;;;;5001129;28;20026;-78
2023/01/21 09:09:57;;;;;;;10.15;6.35;;;;;;;;;;5004480;28;20400;-78
2023/01/21 09:12:42;;;;;;;9.40;6.93;;;;;;;;;;4999924;28;20018;-78
2023/01/21 09:15:28;;;;;;;13.07;7.20;;;;;;;;;;5011933;28;20006;-76
2023/01/21 09:18:13;;;;;;;9.48;6.65;;;;;;;;;;5000354;28;20045;-78
2023/01/21 09:21:03;;;;;;;11.20;6.78;;;;;;;;;;4998613;28;20027;-78
2023/01/21 09:23:48;;;;;;;9.10;6.22;;;;;;;;;;4997437;28;20050;-78
2023/01/21 09:26:34;;;;;;;14.48;6.80;;;;;;;;;;5011403;28;20030;-77
2023/01/21 09:29:19;;;;;;;10.20;6.28;;;;;;;;;;5015309;28;20087;-78
2023/01/21 09:32:05;;;;;;;10.98;6.45;;;;;;;;;;4997691;28;20029;-78
2023/01/21 09:34:51;;;;;;;8.95;6.40;;;;;;;;;;4983190;28;20038;-78
2023/01/21 09:37:37;;;;;;;8.95;5.85;;;;;;;;;;4984676;28;20427;-78
2023/01/21 09:40:23;;;;;;;7.72;6.00;;;;;;;;;;4984327;28;20052;-78
2023/01/21 09:43:12;;;;;;;10.10;6.25;;;;;;;;;;4997173;28;20023;-79
2023/01/21 09:46:01;;;;;;;11.27;7.70;;;;;;;;;;4997786;28;20014;-78
2023/01/21 09:48:48;;;;;;;10.32;7.20;;;;;;;;;;4997121;28;20026;-79
2023/01/21 09:51:36;;;;;;;11.25;7.60;;;;;;;;;;4997745;28;20031;-78
2023/01/21 09:54:26;;;;;;;10.23;6.85;;;;;;;;;;4997837;28;20023;-78
2023/01/21 09:57:31;;;;;;;11.75;7.20;;;;;;;;;;4996522;28;20035;-78
2023/01/21 10:00:16;;;;;;;11.45;7.07;;;;;;;;;;4984020;28;20027;-78
2023/01/21 10:03:08;;;;;;;13.75;7.25;;;;;;;;;;4997459;28;20021;-78
2023/01/21 10:06:16;;;;;;;13.02;8.02;;;;;;;;;;4982566;28;20046;-79
2023/01/21 10:09:17;;;;;;;11.68;6.85;;;;;;;;;;4997443;28;20104;-78
2023/01/21 10:12:34;;;;;;;12.45;7.88;;;;;;;;;;4997279;28;20392;-78
2023/01/21 10:15:28;;;;;;;11.80;7.82;;;;;;;;;;4964619;28;20038;-78
2023/01/21 10:18:17;;;;;;;12.80;7.65;;;;;;;;;;4996297;28;20019;-78
2023/01/21 10:21:32;;;;;;;18.40;8.43;;;;;;;;;;4995283;28;20113;-79
2023/01/21 10:24:26;;;;;;;18.00;8.05;;;;;;;;;;4938752;28;20034;-79
2023/01/21 10:27:15;;;;;;;14.98;7.38;;;;;;;;;;4982390;28;20133;-78
2023/01/21 10:30:05;;;;;;;16.20;8.02;;;;;;;;;;4995040;28;20026;-79
2023/01/21 10:32:53;;;;;;;15.25;9.00;;;;;;;;;;4983622;28;20037;-78
2023/01/21 10:35:41;;;;;;;14.07;8.20;;;;;;;;;;4996988;28;20138;-78
2023/01/21 10:38:30;;;;;;;12.70;7.90;;;;;;;;;;4984186;28;20030;-78
2023/01/21 10:41:45;;;;;;;19.58;8.98;;;;;;;;;;5000555;28;20026;-78
2023/01/21 10:44:40;;;;;;;15.95;8.68;;;;;;;;;;4994887;28;20033;-79
2023/01/21 10:47:36;;;;;;;13.98;8.38;;;;;;;;;;4997717;28;20027;-78
2023/01/21 10:50:42;;;;;;;15.55;8.70;;;;;;;;;;4997035;28;20065;-79
2023/01/21 10:53:31;;;;;;;16.13;9.10;;;;;;;;;;4979499;28;20049;-78
2023/01/21 10:56:23;;;;;;;18.05;8.98;;;;;;;;;;4983177;28;20041;-79
2023/01/21 10:59:17;;;;;;;17.30;9.15;;;;;;;;;;4981644;28;20117;-79
2023/01/21 11:02:19;;;;;;;16.77;8.98;;;;;;;;;;4996609;28;20022;-79
2023/01/21 11:05:05;;;;;;;19.85;9.30;;;;;;;;;;4995326;28;20432;-78
2023/01/21 11:07:51;;;;;;;18.10;8.60;;;;;;;;;;4995523;28;20040;-78
2023/01/21 11:10:38;;;;;;;16.40;8.70;;;;;;;;;;4982881;28;20113;-79
2023/01/21 11:13:23;;;;;;;14.13;8.30;;;;;;;;;;4983128;28;20088;-78
2023/01/21 11:16:09;;;;;;;13.30;7.85;;;;;;;;;;4982713;28;20029;-79
2023/01/21 11:18:55;;;;;;;12.45;7.57;;;;;;;;;;4983123;28;20093;-78
2023/01/21 11:21:43;;;;;;;11.07;7.30;;;;;;;;;;4982280;28;20029;-79
2023/01/21 11:24:30;;;;;;;10.63;6.90;;;;;;;;;;4996456;28;20403;-77
2023/01/21 11:27:19;;;;;;;10.90;6.25;;;;;;;;;;4995225;28;20030;-79
2023/01/21 11:30:06;;;;;;;13.90;6.85;;;;;;;;;;4982708;28;20362;-78
2023/01/21 11:32:51;;;;;;;10.50;6.05;;;;;;;;;;4981437;28;20023;-79
2023/01/21 11:35:37;;;;;;;11.52;6.80;;;;;;;;;;4976161;28;20126;-78
2023/01/21 11:38:28;;;;;;;9.70;5.97;;;;;;;;;;4975485;28;20454;-79
2023/01/21 11:41:16;;;;;;;10.32;6.05;;;;;;;;;;4974021;28;20026;-78
2023/01/21 11:44:07;;;;;;;10.80;5.90;;;;;;;;;;4975693;28;20046;-78
2023/01/21 11:46:53;;;;;;;15.70;6.78;;;;;;;;;;4974628;28;20180;-78
2023/01/21 11:49:45;;;;;;;10.75;5.70;;;;;;;;;;4976006;28;20023;-79
2023/01/21 11:52:30;;;;;;;10.52;5.78;;;;;;;;;;4975904;28;20448;-78
2023/01/21 11:55:17;;;;;;;11.38;5.93;;;;;;;;;;4975799;28;20027;-79
2023/01/21 11:58:03;;;;;;;10.00;5.97;;;;;;;;;;4977970;28;20454;-78
2023/01/21 12:00:51;;;;;;;9.05;6.13;;;;;;;;;;4990565;28;20034;-78
2023/01/21 12:03:37;;;;;;;12.85;6.10;;;;;;;;;;4992077;28;20090;-76
2023/01/21 12:06:25;;;;;;;10.93;5.75;;;;;;;;;;4987157;28;20047;-77
2023/01/21 12:09:15;;;;;;;11.43;5.57;;;;;;;;;;4976158;28;20101;-79
2023/01/21 12:12:07;;;;;;;10.32;6.00;;;;;;;;;;4975184;28;20033;-78
2023/01/21 12:14:54;;;;;;;8.90;6.05;;;;;;;;;;4979276;28;20190;-78
2023/01/21 12:17:47;;;;;;;9.93;5.68;;;;;;;;;;4976282;28;20577;-78
2023/01/21 12:21:02;;;;;;;13.88;5.90;;;;;;;;;;4978044;28;20344;-79
2023/01/21 12:23:54;;;;;;;11.88;5.70;;;;;;;;;;4972219;28;20027;-78
2023/01/21 12:26:44;;;;;;;11.02;5.18;;;;;;;;;;4976999;28;20411;-78
2023/01/21 12:29:44;;;;;;;10.68;5.07;;;;;;;;;;4979772;28;20321;-78
2023/01/21 12:32:36;;;;;;;13.23;5.85;;;;;;;;;;4975513;28;20030;-79
2023/01/21 12:35:24;;;;;;;12.07;5.45;;;;;;;;;;4980840;28;20051;-78
2023/01/21 12:38:12;;;;;;;9.43;5.03;;;;;;;;;;4981456;28;20023;-78
2023/01/21 12:41:13;;;;;;;13.20;5.63;;;;;;;;;;4994248;28;20030;-78
2023/01/21 12:44:05;;;;;;;9.73;4.75;;;;;;;;;;4995389;28;20026;-78
2023/01/21 12:46:52;;;;;;;9.15;4.72;;;;;;;;;;4995649;28;20347;-80
2023/01/21 12:49:56;;;;;;;10.25;5.85;;;;;;;;;;4980586;28;20029;-80
2023/01/21 12:52:51;;;;;;;9.63;5.70;;;;;;;;;;4982828;28;20109;-79
2023/01/21 12:55:55;;;;;;;10.88;6.15;;;;;;;;;;4999169;28;20018;-79
2023/01/21 12:58:49;;;;;;;13.13;6.88;;;;;;;;;;4998698;28;20018;-79
2023/01/21 13:01:35;;;;;;;12.05;6.75;;;;;;;;;;4985116;28;20022;-79
2023/01/21 13:04:29;;;;;;;11.57;6.43;;;;;;;;;;4998942;28;20049;-79
2023/01/21 13:07:39;;;;;;;10.85;5.78;;;;;;;;;;4984737;28;20026;-78
2023/01/21 13:10:32;;;;;;;8.13;5.50;;;;;;;;;;4997890;28;20113;-78
2023/01/21 13:13:34;;;;;;;14.98;8.00;;;;;;;;;;4984154;28;20034;-79
2023/01/21 13:16:22;;;;;;;16.67;6.75;;;;;;;;;;4998309;28;20378;-79
2023/01/21 13:19:10;;;;;;;21.73;11.10;;;;;;;;;;4985802;28;20084;-79
2023/01/21 13:22:02;;;;;;;14.43;8.90;;;;;;;;;;4984059;28;20085;-79
2023/01/21 13:25:06;;;;;;;16.77;10.98;;;;;;;;;;4983405;28;20506;-80
2023/01/21 13:28:18;;;;;;;12.57;7.60;;;;;;;;;;4997110;28;20518;-79
2023/01/21 13:31:26;;;;;;;18.05;9.95;;;;;;;;;;4969366;28;20034;-79
2023/01/21 13:34:20;;;;;;;20.65;7.75;;;;;;;;;;4998170;28;20050;-79
2023/01/21 13:37:12;;;;;;;14.63;7.70;;;;;;;;;;4983596;28;20490;-79
2023/01/21 13:40:10;;;;;;;13.27;8.13;;;;;;;;;;4984712;28;20033;-79
2023/01/21 13:43:03;;;;;;;17.42;8.50;;;;;;;;;;4998215;28;20065;-79
2023/01/21 13:45:49;;;;;;;14.60;8.32;;;;;;;;;;4983160;28;20347;-80
2023/01/21 13:48:52;;;;;;;14.60;7.28;;;;;;;;;;4997447;28;20026;-80
2023/01/21 13:51:49;;;;;;;18.83;8.43;;;;;;;;;;4997753;28;20026;-80
2023/01/21 13:54:43;;;;;;;13.85;6.57;;;;;;;;;;4984216;28;20022;-78
2023/01/21 13:57:47;;;;;;;12.23;6.72;;;;;;;;;;4982746;28;20026;-79
2023/01/21 14:00:42;;;;;;;13.88;7.35;;;;;;;;;;4998665;28;20011;-79
2023/01/21 14:03:46;;;;;;;12.82;7.28;;;;;;;;;;4997525;28;20026;-79
2023/01/21 14:06:39;;;;;;;13.50;7.50;;;;;;;;;;4997281;28;20064;-80
2023/01/21 14:09:27;;;;;;;14.18;6.85;;;;;;;;;;4997407;28;20061;-78
2023/01/21 14:12:16;;;;;;;13.52;7.43;;;;;;;;;;4996185;28;20366;-79
2023/01/21 14:15:02;;;;;;;11.57;6.93;;;;;;;;;;4997467;28;20517;-80
2023/01/21 14:18:08;;;;;;;27.80;16.42;;;;;;;;;;4997351;28;20415;-79
2023/01/21 14:21:14;;;;;;;17.70;10.07;;;;;;;;;;4982366;28;20031;-79
2023/01/21 14:24:17;;;;;;;13.90;7.13;;;;;;;;;;4996213;28;20101;-78
2023/01/21 14:27:22;;;;;;;19.90;10.98;;;;;;;;;;4982449;28;20021;-79
2023/01/21 14:30:17;;;;;;;15.95;8.25;;;;;;;;;;4983128;28;20071;-78
2023/01/21 14:33:08;;;;;;;17.77;8.48;;;;;;;;;;4995816;28;20025;-78
2023/01/21 14:35:59;;;;;;;13.57;6.00;;;;;;;;;;4995581;28;20129;-79
2023/01/21 14:39:04;;;;;;;14.98;6.18;;;;;;;;;;4982436;28;20018;-79
2023/01/21 14:42:09;;;;;;;17.67;8.48;;;;;;;;;;4996900;28;20030;-78
2023/01/21 14:44:55;;;;;;;15.95;7.65;;;;;;;;;;4983279;28;20500;-78
2023/01/21 14:47:42;;;;;;;11.32;6.85;;;;;;;;;;4996988;28;20040;-79
2023/01/21 14:50:50;;;;;;;17.83;7.70;;;;;;;;;;4995837;28;20023;-80
2023/01/21 14:53:45;;;;;;;11.73;6.10;;;;;;;;;;4996663;28;20034;-78
2023/01/21 14:56:34;;;;;;;13.93;9.98;;;;;;;;;;4998453;28;20030;-79
2023/01/21 14:59:27;;;;;;;14.07;6.03;;;;;;;;;;4995876;28;20197;-77
2023/01/21 15:02:25;;;;;;;13.52;6.55;;;;;;;;;;4984237;28;20022;-78
2023/01/21 15:05:22;;;;;;;15.77;7.35;;;;;;;;;;4998606;28;20030;-78
2023/01/21 15:08:12;;;;;;;15.55;6.57;;;;;;;;;;4997415;28;20018;-78
2023/01/21 15:11:01;;;;;;;17.08;10.52;;;;;;;;;;4982600;28;20034;-80
2023/01/21 15:14:00;;;;;;;14.27;6.88;;;;;;;;;;4995243;28;20438;-78
2023/01/21 15:16:45;;;;;;;15.52;6.13;;;;;;;;;;4992581;28;20029;-77
2023/01/21 15:19:32;;;;;;;12.93;6.32;;;;;;;;;;5014740;28;20059;-79
2023/01/21 15:22:37;;;;;;;12.55;6.35;;;;;;;;;;5001589;28;20011;-78
2023/01/21 15:25:33;;;;;;;12.20;6.20;;;;;;;;;;5013916;28;20030;-78
2023/01/21 15:28:24;;;;;;;14.63;6.30;;;;;;;;;;4983092;28;20033;-79
2023/01/21 15:31:19;;;;;;;13.50;6.65;;;;;;;;;;4982334;28;20027;-79
2023/01/21 15:34:13;;;;;;;15.70;7.45;;;;;;;;;;4981945;28;20052;-79
2023/01/21 15:36:58;;;;;;;20.55;11.73;;;;;;;;;;4978352;28;20046;-79
2023/01/21 15:39:44;;;;;;;14.63;8.60;;;;;;;;;;4975400;28;20019;-79
2023/01/21 15:42:30;;;;;;;18.00;11.32;;;;;;;;;;4976419;28;20027;-78
2023/01/21 15:45:22;;;;;;;14.25;8.68;;;;;;;;;;4975133;28;20019;-78
2023/01/21 15:48:23;;;;;;;18.92;12.32;;;;;;;;;;4976093;28;20026;-79
2023/01/21 15:51:12;;;;;;;14.30;9.15;;;;;;;;;;4975012;28;20027;-79
2023/01/21 15:54:00;;;;;;;11.35;6.10;;;;;;;;;;4975863;28;20081;-78
2023/01/21 15:56:47;;;;;;;8.27;4.47;;;;;;;;;;4976065;28;20109;-79
2023/01/21 15:59:33;;;;;;;7.28;4.32;;;;;;;;;;4976036;28;20042;-78
2023/01/21 16:02:21;;;;;;;11.90;5.28;;;;;;;;;;4976233;28;20393;-78
2023/01/21 16:05:07;;;;;;;12.15;6.30;;;;;;;;;;4978385;28;20038;-78
2023/01/21 16:07:53;;;;;;;17.23;6.57;;;;;;;;;;4993582;28;20062;-78
2023/01/21 16:10:41;;;;;;;43.97;16.80;;;;;;;;;;4987146;28;20075;-78
2023/01/21 16:13:26;;;;;;;10.50;5.93;;;;;;;;;;4980905;28;20026;-78
2023/01/21 16:16:33;;;;;;;11.82;5.95;;;;;;;;;;4988736;28;20034;-77
2023/01/21 16:19:20;;;;;;;13.68;6.00;;;;;;;;;;4983269;28;20019;-77
2023/01/21 16:22:08;;;;;;;13.40;7.32;;;;;;;;;;4991841;28;20041;-78
2023/01/21 16:24:57;;;;;;;11.90;6.57;;;;;;;;;;4982646;28;20027;-78
2023/01/21 16:27:47;;;;;;;10.65;5.35;;;;;;;;;;4988881;28;20023;-78
2023/01/21 16:30:33;;;;;;;9.85;5.88;;;;;;;;;;4980888;28;20077;-79
2023/01/21 16:33:18;;;;;;;27.77;13.13;;;;;;;;;;4978619;28;20452;-79
2023/01/21 16:36:06;;;;;;;26.23;12.82;;;;;;;;;;4988899;28;20050;-78
2023/01/21 16:38:51;;;;;;;15.85;8.23;;;;;;;;;;4984731;28;20458;-79
2023/01/21 16:41:38;;;;;;;15.85;6.55;;;;;;;;;;4997687;28;20029;-78
2023/01/21 16:44:24;;;;;;;16.52;6.30;;;;;;;;;;5000200;28;20018;-78